LPPR/OPO METAR and TAF weather

Enter ICAO airport designator
Station Type Date Time Source
LPPR METAR 2022/01/29 13:30 UTC NOAA

LPPR 291330Z 08010KT 060V120 CAVOK 19/M02 Q1030


Station Type Date Time Source
LPPR Decoded METAR 2022/01/29 13:30 UTC NOAA

Porto / Pedras Rubras, Portugal (LPPR) 41-14N 008-41W 77M
Jan 29, 2022 - 08:30 AM EST / 2022.01.29 1330 UTC
Wind: from the E (080 degrees) at 12 MPH (10 KT) (direction variable):0
Visibility: greater than 7 mile(s):0
Temperature: 66 F (19 C)
Dew Point: 28 F (-2 C)
Relative Humidity: 24%
Pressure (altimeter): 30.42 in. Hg (1030 hPa)
ob: LPPR 291330Z 08010KT 060V120 CAVOK 19/M02 Q1030
cycle: 13

Station Type Date Time Source
LPPR TAF 2022/01/29 12:18 UTC NOAA

TAF LPPR 291100Z 2912/3012 09008KT CAVOK
BECMG 2916/2918 VRB02KT
BECMG 2922/2924 09008KT

Example: see airport list